createdAt,value
2023-05-04T00:00:00.407Z,100953.97
2023-05-04T00:05:04.546Z,100953.13
2023-05-04T00:10:07.979Z,100955.66
2023-05-04T00:15:10.530Z,100948.19
2023-05-04T00:20:13.676Z,100949.81
2023-05-04T00:25:15.985Z,100933.78
2023-05-04T00:30:18.238Z,100930.50
2023-05-04T00:35:20.434Z,100932.13
2023-05-04T00:40:22.768Z,100930.22
2023-05-04T00:45:24.964Z,100924.16
2023-05-04T00:50:28.551Z,100934.12
2023-05-04T00:55:31.683Z,100938.53
2023-05-04T01:00:33.825Z,100940.72
2023-05-04T01:05:40.932Z,100943.47
2023-05-04T01:10:43.023Z,100945.09
2023-05-04T01:15:46.293Z,100937.59
2023-05-04T01:20:48.518Z,100948.91
2023-05-04T01:26:07.064Z,100939.47
2023-05-04T01:31:14.436Z,100933.38
2023-05-04T01:36:16.932Z,100938.34
2023-05-04T01:41:19.046Z,100940.59
2023-05-04T01:46:21.802Z,100936.75
2023-05-04T01:51:23.986Z,100929.31
2023-05-04T01:56:26.464Z,100932.88
2023-05-04T02:01:28.688Z,100926.25
2023-05-04T02:06:30.893Z,100918.47
2023-05-04T02:11:33.053Z,100913.47
2023-05-04T02:16:35.367Z,100910.44
2023-05-04T02:21:37.642Z,100910.97
2023-05-04T02:26:39.869Z,100905.47
2023-05-04T02:31:42.040Z,100908.31
2023-05-04T02:36:44.228Z,100914.22
2023-05-04T02:41:46.989Z,100912.91
2023-05-04T02:46:49.142Z,100918.16
2023-05-04T02:51:51.523Z,100920.38
2023-05-04T02:56:53.652Z,100922.59
2023-05-04T03:01:56.006Z,100925.00
2023-05-04T03:06:58.208Z,100931.34
2023-05-04T03:12:00.382Z,100940.72
2023-05-04T03:17:02.594Z,100936.28
2023-05-04T03:22:04.753Z,100928.84
2023-05-04T03:27:07.210Z,100945.37
2023-05-04T03:32:09.489Z,100938.53
2023-05-04T03:37:12.359Z,100936.38
2023-05-04T03:42:14.480Z,100936.09
2023-05-04T03:47:16.651Z,100939.66
2023-05-04T03:52:18.765Z,100947.62
2023-05-04T03:57:22.392Z,100951.69
2023-05-04T04:02:24.673Z,100956.09
2023-05-04T04:07:27.053Z,100959.44
2023-05-04T04:12:30.479Z,100956.75
2023-05-04T04:17:32.742Z,100962.00
2023-05-04T04:22:36.077Z,100958.41
2023-05-04T04:27:38.303Z,100974.41
2023-05-04T04:32:40.616Z,100978.84
2023-05-04T04:37:42.767Z,100976.91
2023-05-04T04:42:44.876Z,100964.75
2023-05-04T04:47:47.312Z,100977.19
2023-05-04T04:52:49.502Z,100972.22
2023-05-04T04:57:52.969Z,100970.50
2023-05-04T05:02:55.196Z,100985.63
2023-05-04T05:07:57.400Z,100972.87
2023-05-04T05:12:59.540Z,100979.78
2023-05-04T05:18:01.678Z,100984.22
2023-05-04T05:23:03.875Z,100987.00
2023-05-04T05:28:06.091Z,100983.69
2023-05-04T05:33:08.325Z,100995.28
2023-05-04T05:38:10.754Z,100993.00
2023-05-04T05:43:12.903Z,100992.38
2023-05-04T05:48:15.094Z,100980.09
2023-05-04T05:53:17.319Z,100992.41
2023-05-04T05:58:19.468Z,100984.28
2023-05-04T06:03:21.794Z,100996.44
2023-05-04T06:08:24.155Z,100999.69
2023-05-04T06:13:26.449Z,100994.66
2023-05-04T06:18:28.668Z,100995.44
2023-05-04T06:23:31.748Z,101006.19
2023-05-04T06:28:35.121Z,101006.69
2023-05-04T06:33:38.195Z,101016.69
2023-05-04T06:38:40.955Z,101017.63
2023-05-04T06:43:43.779Z,101021.34
2023-05-04T06:48:45.916Z,101015.38
2023-05-04T06:53:47.981Z,101023.00
2023-05-04T06:58:50.727Z,101028.69
2023-05-04T07:03:53.183Z,101029.00
2023-05-04T07:08:55.322Z,101024.53
2023-05-04T07:13:59.036Z,101013.53
2023-05-04T07:19:01.196Z,101011.41
2023-05-04T07:24:04.462Z,101012.03
2023-05-04T07:29:06.706Z,101010.19
2023-05-04T07:34:08.920Z,101011.56
2023-05-04T07:39:11.300Z,101018.34
2023-05-04T07:44:13.447Z,101014.69
2023-05-04T07:49:15.697Z,101018.62
2023-05-04T07:54:17.895Z,101018.81
2023-05-04T07:59:20.426Z,101007.25
2023-05-04T08:04:22.588Z,101001.81
2023-05-04T08:09:24.754Z,100997.22
2023-05-04T08:14:27.091Z,100997.66
2023-05-04T08:19:29.292Z,100997.44
2023-05-04T08:24:31.500Z,101007.06
2023-05-04T08:29:33.850Z,100996.91
2023-05-04T08:34:36.863Z,101008.44
2023-05-04T08:39:41.839Z,101012.69
2023-05-04T08:44:44.307Z,101011.53
2023-05-04T08:49:46.583Z,101017.38
2023-05-04T08:54:52.011Z,101011.38
2023-05-04T08:59:55.864Z,101007.56
2023-05-04T09:04:58.683Z,101014.91
2023-05-04T09:10:01.479Z,101001.44
2023-05-04T09:15:17.612Z,101006.00
2023-05-04T09:20:19.968Z,100997.75
2023-05-04T09:25:22.255Z,100998.63
2023-05-04T09:30:24.569Z,100996.00
2023-05-04T09:35:33.714Z,100990.66
2023-05-04T09:40:40.224Z,100992.38
2023-05-04T09:45:47.281Z,100974.75
2023-05-04T09:50:52.289Z,100986.34
2023-05-04T09:56:05.779Z,100994.38
2023-05-04T10:01:09.733Z,100985.09
2023-05-04T10:06:12.455Z,100974.53
2023-05-04T10:11:16.162Z,100971.69
2023-05-04T10:16:43.907Z,100962.31
2023-05-04T10:22:14.528Z,100958.87
2023-05-04T10:27:54.002Z,100949.72
2023-05-04T10:32:57.448Z,100935.53
2023-05-04T10:37:59.994Z,100926.59
2023-05-04T10:43:02.276Z,100926.22
2023-05-04T10:48:08.513Z,100920.53
2023-05-04T10:53:12.193Z,100915.72
2023-05-04T10:58:19.134Z,100905.38
2023-05-04T11:03:25.153Z,100907.03
2023-05-04T11:08:27.753Z,100899.19
2023-05-04T11:13:33.876Z,100882.03
2023-05-04T11:18:37.460Z,100883.12
2023-05-04T11:23:39.752Z,100865.62
2023-05-04T11:28:42.553Z,100864.00
2023-05-04T11:33:54.998Z,100861.28
2023-05-04T11:38:57.725Z,100843.31
2023-05-04T11:44:01.777Z,100835.75
2023-05-04T11:49:05.251Z,100835.69
2023-05-04T11:54:07.685Z,100836.09
2023-05-04T11:59:10.918Z,100839.22
2023-05-04T12:04:13.241Z,100835.25
2023-05-04T12:09:16.602Z,100818.16
2023-05-04T12:14:19.402Z,100828.25
2023-05-04T12:19:21.653Z,100824.16
2023-05-04T12:24:24.946Z,100813.69
2023-05-04T12:29:27.234Z,100809.47
2023-05-04T12:34:29.418Z,100802.09
2023-05-04T12:39:32.902Z,100799.53
2023-05-04T12:44:35.098Z,100784.50
2023-05-04T12:49:37.310Z,100785.28
2023-05-04T12:54:39.430Z,100783.47
2023-05-04T12:59:41.560Z,100783.81
2023-05-04T13:04:43.861Z,100783.81
2023-05-04T13:09:45.973Z,100772.72
2023-05-04T13:14:48.144Z,100775.59
2023-05-04T13:19:50.379Z,100765.97
2023-05-04T13:24:52.524Z,100768.53
2023-05-04T13:29:54.808Z,100763.63
2023-05-04T13:34:57.208Z,100767.72
2023-05-04T13:40:01.462Z,100748.97
2023-05-04T13:45:03.979Z,100747.62
2023-05-04T13:50:07.337Z,100743.34
2023-05-04T13:55:09.676Z,100746.28
2023-05-04T14:00:12.460Z,100745.34
2023-05-04T14:05:14.795Z,100734.31
2023-05-04T14:10:17.734Z,100736.06
2023-05-04T14:15:22.729Z,100741.59
2023-05-04T14:20:24.974Z,100736.22
2023-05-04T14:25:27.225Z,100724.97
2023-05-04T14:30:29.474Z,100727.16
2023-05-04T14:35:31.596Z,100731.38
2023-05-04T14:40:33.856Z,100735.72
2023-05-04T14:45:36.090Z,100732.66
2023-05-04T14:50:38.527Z,100736.31
2023-05-04T14:55:42.195Z,100721.25
2023-05-04T15:00:45.269Z,100723.06
2023-05-04T15:05:47.426Z,100720.97
2023-05-04T15:10:49.568Z,100726.25
2023-05-04T15:15:52.368Z,100727.97
2023-05-04T15:20:54.552Z,100711.47
2023-05-04T15:25:56.753Z,100716.62
2023-05-04T15:31:00.543Z,100720.00
2023-05-04T15:36:07.977Z,100708.28
2023-05-04T15:41:10.253Z,100705.13
2023-05-04T15:46:12.442Z,100707.16
2023-05-04T15:51:15.001Z,100709.53
2023-05-04T15:56:17.394Z,100706.03
2023-05-04T16:01:19.548Z,100702.25
2023-05-04T16:06:23.617Z,100698.50
2023-05-04T16:11:26.167Z,100708.81
2023-05-04T16:16:28.409Z,100698.94
2023-05-04T16:21:30.567Z,100706.50
2023-05-04T16:26:32.751Z,100704.00
2023-05-04T16:31:35.118Z,100702.94
2023-05-04T16:36:37.338Z,100703.12
2023-05-04T16:41:39.477Z,100716.78
2023-05-04T16:46:42.036Z,100714.31
2023-05-04T16:51:44.314Z,100719.38
2023-05-04T16:56:47.090Z,100726.66
2023-05-04T17:01:51.220Z,100729.66
2023-05-04T17:06:53.375Z,100723.28
2023-05-04T17:11:55.724Z,100739.91
2023-05-04T17:16:57.979Z,100735.03
2023-05-04T17:22:10.485Z,100748.97
2023-05-04T17:27:13.070Z,100748.72
2023-05-04T17:32:15.328Z,100758.78
2023-05-04T17:37:17.584Z,100762.25
2023-05-04T17:42:19.719Z,100769.22
2023-05-04T17:47:21.913Z,100767.72
2023-05-04T17:52:24.107Z,100776.44
2023-05-04T17:57:26.316Z,100786.53
2023-05-04T18:02:30.760Z,100777.53
2023-05-04T18:07:33.060Z,100796.78
2023-05-04T18:12:38.034Z,100797.13
2023-05-04T18:17:40.569Z,100805.34
2023-05-04T18:22:42.780Z,100811.53
2023-05-04T18:27:45.000Z,100819.44
2023-05-04T18:32:47.274Z,100814.06
2023-05-04T18:37:49.692Z,100828.03
2023-05-04T18:42:51.847Z,100830.22
2023-05-04T18:47:54.026Z,100826.78
2023-05-04T18:52:56.172Z,100846.09
2023-05-04T18:57:58.375Z,100857.59
2023-05-04T19:03:00.601Z,100861.53
2023-05-04T19:08:02.838Z,100862.62
2023-05-04T19:13:04.970Z,100872.41
2023-05-04T19:18:07.312Z,100866.84
2023-05-04T19:23:12.410Z,100875.38
2023-05-04T19:28:14.582Z,100880.63
2023-05-04T19:33:16.865Z,100892.72
2023-05-04T19:38:19.033Z,100885.59
2023-05-04T19:43:21.201Z,100891.06
2023-05-04T19:48:23.636Z,100888.34
2023-05-04T19:53:25.972Z,100886.69
2023-05-04T19:58:30.267Z,100888.75
2023-05-04T20:03:32.433Z,100891.34
2023-05-04T20:08:34.642Z,100891.00
2023-05-04T20:13:38.215Z,100888.34
2023-05-04T20:18:40.727Z,100904.00
2023-05-04T20:23:45.751Z,100899.69
2023-05-04T20:28:47.882Z,100908.37
2023-05-04T20:33:50.003Z,100905.31
2023-05-04T20:38:52.120Z,100912.41
2023-05-04T20:43:54.318Z,100921.19
2023-05-04T20:48:56.992Z,100936.41
2023-05-04T20:53:59.260Z,100922.63
2023-05-04T20:59:01.392Z,100919.41
2023-05-04T21:04:03.784Z,100922.78
2023-05-04T21:09:06.486Z,100917.06
2023-05-04T21:14:08.714Z,100919.16
2023-05-04T21:19:10.982Z,100919.50
2023-05-04T21:24:13.933Z,100913.03
2023-05-04T21:29:16.198Z,100906.62
2023-05-04T21:34:19.186Z,100915.50
2023-05-04T21:39:22.061Z,100922.09
2023-05-04T21:44:24.237Z,100921.53
2023-05-04T21:49:26.367Z,100924.72
2023-05-04T21:54:28.558Z,100925.00
2023-05-04T21:59:30.683Z,100917.72
2023-05-04T22:04:37.955Z,100922.69
2023-05-04T22:09:40.094Z,100927.88
2023-05-04T22:14:42.667Z,100937.34
2023-05-04T22:19:50.148Z,100947.06
2023-05-04T22:24:52.317Z,100936.72
2023-05-04T22:29:54.460Z,100949.34
2023-05-04T22:34:57.419Z,100954.19
2023-05-04T22:40:00.397Z,100951.44
2023-05-04T22:45:02.693Z,100945.41
2023-05-04T22:50:05.455Z,100949.16
2023-05-04T22:55:08.703Z,100944.28
2023-05-04T23:00:12.089Z,100944.03
2023-05-04T23:05:14.669Z,100939.84
2023-05-04T23:10:16.992Z,100930.31
2023-05-04T23:15:19.255Z,100938.31
2023-05-04T23:20:21.606Z,100940.41
2023-05-04T23:25:23.727Z,100930.53
2023-05-04T23:30:25.883Z,100944.72
2023-05-04T23:35:28.244Z,100936.19
2023-05-04T23:40:30.452Z,100930.75
2023-05-04T23:45:32.628Z,100936.84
2023-05-04T23:50:34.766Z,100930.44
2023-05-04T23:55:36.916Z,100920.88
